KQPB

2017-09-24 03:00:06Z

Plaintext report →

Temperature
High33.0 °C91.4 °F
Current31.9 °C89.4 °F
Low31.4 °C88.5 °F
Feels Like40.1 °C104.2 °F
Dewpoint25.6 °C78.1 °F
Winds
Speed and Direction0.5 m/s1.1 mi/h 0 kn284 °
Gust0.0 m/s0.00 mi/h 0 kn
SquallUnavailable
Pressure and Humidity
Pressure At Field Level1006.0 mb29.7 in
Pressure At Sea Level1008.6 mb29.8 in
Pressure Trend0.8 mb 0.0 in
Pressure Tendency 2
Humidity70 %

Ceilometer Alarms / Warnings:

Ceilometer Data Missing!
Historical

Additional Information:

  METAR KQPB 240300Z AUTO 00000KT M1/4SM NCD 32/26 A2971 RMK AO2 SLP086
  10330 20314 52008 PWINO $=    
Cloud Cover
Layer 1 Undetected
Layer 2 Undetected
Layer 3 Undetected
Winds
2-minute Winds
Minimum0.3 m/s0.67 mi/h 0 kn263 °
Average1.1 m/s2.46 mi/h 2 kn291 °
Maximum2.2 m/s4.92 mi/h 4 kn327 °
10-minute Winds
Minimum0.1 m/s0.22 mi/h 0 kn263 °
Average1.1 m/s2.46 mi/h 2 kn312 °
Maximum2.7 m/s6.04 mi/h 5 kn 4 °
Precipitation
IntensityUnavailable
Rainfall
1-hour Total0.00 mm0.00 in
3-hour Total0.00 mm0.00 in
6-hour Total0.00 mm0.00 in
24-hour Total0.00 mm0.00 in
Precipitation
1-hour TotalUnavailable
3-hour TotalUnavailable
6-hour TotalUnavailable
24-hour TotalUnavailable